createdAt,value
2023-03-29T00:00:01.528Z,2.37
2023-03-29T00:02:31.007Z,1.30
2023-03-29T00:05:03.874Z,1.63
2023-03-29T00:07:33.465Z,1.37
2023-03-29T00:10:02.838Z,1.47
2023-03-29T00:12:29.752Z,1.87
2023-03-29T00:15:01.039Z,1.40
2023-03-29T00:17:28.415Z,1.60
2023-03-29T00:19:55.387Z,1.47
2023-03-29T00:22:22.206Z,1.60
2023-03-29T00:24:49.203Z,2.00
2023-03-29T00:27:16.765Z,1.63
2023-03-29T00:29:43.748Z,1.70
2023-03-29T00:32:10.564Z,1.40
2023-03-29T00:34:37.281Z,1.70
2023-03-29T00:37:08.884Z,1.47
2023-03-29T00:39:37.169Z,1.67
2023-03-29T00:42:04.211Z,1.63
2023-03-29T00:45:07.336Z,1.70
2023-03-29T00:47:51.770Z,1.60
2023-03-29T00:50:36.232Z,1.60
2023-03-29T00:53:21.364Z,1.40
2023-03-29T00:56:03.836Z,1.73
2023-03-29T00:58:49.482Z,1.60
2023-03-29T01:01:28.253Z,1.50
2023-03-29T01:04:09.783Z,1.83
2023-03-29T01:06:44.166Z,1.50
2023-03-29T01:09:16.284Z,1.40
2023-03-29T01:11:57.136Z,1.60
2023-03-29T01:14:37.658Z,1.80
2023-03-29T01:17:04.856Z,1.90
2023-03-29T01:19:45.038Z,1.50
2023-03-29T01:22:40.712Z,1.93
2023-03-29T01:25:29.715Z,1.80
2023-03-29T01:28:21.389Z,1.87
2023-03-29T01:31:18.379Z,2.00
2023-03-29T01:33:56.042Z,2.00
2023-03-29T01:36:58.698Z,1.63
2023-03-29T01:39:26.023Z,1.93
2023-03-29T01:42:07.772Z,2.00
2023-03-29T01:44:51.978Z,1.83
2023-03-29T01:48:07.994Z,1.53
2023-03-29T01:51:55.090Z,1.70
2023-03-29T01:54:35.309Z,1.90
2023-03-29T01:57:08.260Z,1.40
2023-03-29T01:59:40.430Z,1.90
2023-03-29T02:02:14.589Z,1.83
2023-03-29T02:04:55.632Z,1.90
2023-03-29T02:07:32.252Z,2.03
2023-03-29T02:10:00.502Z,2.10
2023-03-29T02:12:27.298Z,1.93
2023-03-29T02:14:54.720Z,1.87
2023-03-29T02:17:24.939Z,1.80
2023-03-29T02:20:33.779Z,2.33
2023-03-29T02:23:24.843Z,1.87
2023-03-29T02:25:53.844Z,2.17
2023-03-29T02:28:25.409Z,2.03
2023-03-29T02:31:09.561Z,2.23
2023-03-29T02:34:11.270Z,1.83
2023-03-29T02:36:47.336Z,2.03
2023-03-29T02:39:18.009Z,1.77
2023-03-29T02:41:49.567Z,2.23
2023-03-29T02:44:22.391Z,2.07
2023-03-29T02:46:58.104Z,1.80
2023-03-29T02:49:25.244Z,2.03
2023-03-29T02:51:57.113Z,2.00
2023-03-29T02:54:30.251Z,2.53
2023-03-29T02:57:02.533Z,2.10
2023-03-29T02:59:30.426Z,1.70
2023-03-29T03:01:58.188Z,2.00
2023-03-29T03:04:25.942Z,2.20
2023-03-29T03:06:52.800Z,2.27
2023-03-29T03:09:19.947Z,2.13
2023-03-29T03:11:46.744Z,2.27
2023-03-29T03:14:13.492Z,2.00
2023-03-29T03:16:40.288Z,2.00
2023-03-29T03:19:07.080Z,2.40
2023-03-29T03:21:35.163Z,2.10
2023-03-29T03:24:02.035Z,2.03
2023-03-29T03:26:31.486Z,1.80
2023-03-29T03:28:58.258Z,2.13
2023-03-29T03:31:25.291Z,1.80
2023-03-29T03:33:52.809Z,2.10
2023-03-29T03:36:19.493Z,2.50
2023-03-29T03:38:46.241Z,1.93
2023-03-29T03:41:13.100Z,2.00
2023-03-29T03:43:42.713Z,2.50
2023-03-29T03:46:09.720Z,2.37
2023-03-29T03:48:37.571Z,1.90
2023-03-29T03:51:06.002Z,2.30
2023-03-29T03:53:34.022Z,1.97
2023-03-29T03:56:02.197Z,1.97
2023-03-29T03:58:28.898Z,2.07
2023-03-29T04:00:55.662Z,2.70
2023-03-29T04:03:22.716Z,2.40
2023-03-29T04:05:49.914Z,2.03
2023-03-29T04:08:18.028Z,2.30
2023-03-29T04:10:54.483Z,2.07
2023-03-29T04:13:22.957Z,2.13
2023-03-29T04:15:54.037Z,2.33
2023-03-29T04:18:21.548Z,2.23
2023-03-29T04:20:49.258Z,2.17
2023-03-29T04:23:16.402Z,2.23
2023-03-29T04:25:43.477Z,2.17
2023-03-29T04:28:21.739Z,2.20
2023-03-29T04:30:49.004Z,2.00
2023-03-29T04:33:15.920Z,2.40
2023-03-29T04:35:43.090Z,1.97
2023-03-29T04:38:13.790Z,2.43
2023-03-29T04:40:40.576Z,2.03
2023-03-29T04:43:07.299Z,2.53
2023-03-29T04:45:34.483Z,2.37
2023-03-29T04:48:02.306Z,2.20
2023-03-29T04:50:29.201Z,2.87
2023-03-29T04:52:55.963Z,3.20
2023-03-29T04:55:22.833Z,3.30
2023-03-29T04:57:49.595Z,2.63
2023-03-29T05:00:17.080Z,2.60
2023-03-29T05:02:45.061Z,2.30
2023-03-29T05:05:13.837Z,2.60
2023-03-29T05:07:41.255Z,2.43
2023-03-29T05:10:09.243Z,2.50
2023-03-29T05:12:36.718Z,2.47
2023-03-29T05:15:08.012Z,3.03
2023-03-29T05:17:35.119Z,2.17
2023-03-29T05:20:07.072Z,2.90
2023-03-29T05:22:33.858Z,2.40
2023-03-29T05:25:08.474Z,2.70
2023-03-29T05:27:35.651Z,2.63
2023-03-29T05:30:02.878Z,2.37
2023-03-29T05:32:30.321Z,2.37
2023-03-29T05:34:57.593Z,2.47
2023-03-29T05:37:24.360Z,2.57
2023-03-29T05:39:51.089Z,2.30
2023-03-29T05:42:24.462Z,2.47
2023-03-29T05:44:52.811Z,2.83
2023-03-29T05:47:21.222Z,2.47
2023-03-29T05:49:47.966Z,2.23
2023-03-29T05:52:14.975Z,2.80
2023-03-29T05:54:42.164Z,2.60
2023-03-29T05:57:08.920Z,2.83
2023-03-29T05:59:35.746Z,2.50
2023-03-29T06:02:05.073Z,2.80
2023-03-29T06:04:33.600Z,2.33
2023-03-29T06:07:02.054Z,2.77
2023-03-29T06:09:28.794Z,2.63
2023-03-29T06:11:56.370Z,2.50
2023-03-29T06:14:24.816Z,2.50
2023-03-29T06:16:51.798Z,2.60
2023-03-29T06:19:19.314Z,2.27
2023-03-29T06:21:47.341Z,2.57
2023-03-29T06:24:14.219Z,2.50
2023-03-29T06:26:41.934Z,2.73
2023-03-29T06:29:09.181Z,2.90
2023-03-29T06:31:36.369Z,2.83
2023-03-29T06:34:04.756Z,2.90
2023-03-29T06:36:34.278Z,2.70
2023-03-29T06:39:00.993Z,2.70
2023-03-29T06:41:27.792Z,3.43
2023-03-29T06:43:55.076Z,3.00
2023-03-29T06:46:22.619Z,2.97
2023-03-29T06:49:01.328Z,3.57
2023-03-29T06:51:28.159Z,2.90
2023-03-29T06:53:55.099Z,3.03
2023-03-29T06:56:22.282Z,3.13
2023-03-29T06:58:49.021Z,3.57
2023-03-29T07:01:15.990Z,3.27
2023-03-29T07:03:46.741Z,3.70
2023-03-29T07:06:14.962Z,3.77
2023-03-29T07:08:45.046Z,3.83
2023-03-29T07:11:14.462Z,3.10
2023-03-29T07:13:42.923Z,3.83
2023-03-29T07:16:13.659Z,3.10
2023-03-29T07:18:43.957Z,3.00
2023-03-29T07:21:13.231Z,3.07
2023-03-29T07:23:40.967Z,3.10
2023-03-29T07:26:08.097Z,3.33
2023-03-29T07:28:37.367Z,3.67
2023-03-29T07:31:10.953Z,3.97
2023-03-29T07:33:39.277Z,3.67
2023-03-29T07:36:07.354Z,3.87
2023-03-29T07:38:34.208Z,3.53
2023-03-29T07:41:06.666Z,3.90
2023-03-29T07:43:34.381Z,4.00
2023-03-29T07:46:04.831Z,4.20
2023-03-29T07:48:33.619Z,4.33
2023-03-29T07:51:00.811Z,4.40
2023-03-29T07:53:29.588Z,4.90
2023-03-29T07:55:56.942Z,5.40
2023-03-29T07:58:23.695Z,4.97
2023-03-29T08:00:50.604Z,4.40
2023-03-29T08:03:17.660Z,5.80
2023-03-29T08:05:44.996Z,5.13
2023-03-29T08:08:14.005Z,4.43
2023-03-29T08:10:42.595Z,5.00
2023-03-29T08:13:11.699Z,5.40
2023-03-29T08:15:40.005Z,4.87
2023-03-29T08:18:08.579Z,5.13
2023-03-29T08:20:35.395Z,5.40
2023-03-29T08:23:02.553Z,5.33
2023-03-29T08:25:29.696Z,5.93
2023-03-29T08:27:56.558Z,4.57
2023-03-29T08:30:23.461Z,5.30
2023-03-29T08:32:52.996Z,5.70
2023-03-29T08:35:22.257Z,5.80
2023-03-29T08:37:49.033Z,5.38
2023-03-29T08:40:23.237Z,5.60
2023-03-29T08:42:58.988Z,6.50
2023-03-29T08:46:02.066Z,5.83
2023-03-29T08:49:03.664Z,5.53
2023-03-29T08:51:39.342Z,5.83
2023-03-29T08:54:20.488Z,6.37
2023-03-29T08:56:51.304Z,5.50
2023-03-29T08:59:25.226Z,9.73
2023-03-29T09:01:57.776Z,6.17
2023-03-29T09:04:34.834Z,6.57
2023-03-29T09:07:09.311Z,5.82
2023-03-29T09:09:36.335Z,5.43
2023-03-29T09:12:24.806Z,6.23
2023-03-29T09:15:09.848Z,5.75
2023-03-29T09:18:02.190Z,5.75
2023-03-29T09:21:22.747Z,6.10
2023-03-29T09:24:20.784Z,5.30
2023-03-29T09:27:14.319Z,6.22
2023-03-29T09:29:55.135Z,5.47
2023-03-29T09:32:50.403Z,6.30
2023-03-29T09:35:27.630Z,5.63
2023-03-29T09:37:55.391Z,6.63
2023-03-29T09:40:39.729Z,5.57
2023-03-29T09:43:13.762Z,6.45
2023-03-29T09:45:42.779Z,6.78
2023-03-29T09:48:19.339Z,7.32
2023-03-29T09:50:52.819Z,6.13
2023-03-29T09:53:21.856Z,6.20
2023-03-29T09:55:50.894Z,7.30
2023-03-29T09:58:28.382Z,6.60
2023-03-29T10:01:00.711Z,6.90
2023-03-29T10:03:31.774Z,7.15
2023-03-29T10:06:02.690Z,6.78
2023-03-29T10:08:58.963Z,6.90
2023-03-29T10:11:33.497Z,8.25
2023-03-29T10:14:14.005Z,6.68
2023-03-29T10:16:46.055Z,6.10
2023-03-29T10:19:21.244Z,6.93
2023-03-29T10:21:53.884Z,7.35
2023-03-29T10:24:23.169Z,6.50
2023-03-29T10:26:55.825Z,6.85
2023-03-29T10:29:25.946Z,6.95
2023-03-29T10:31:53.746Z,6.25
2023-03-29T10:34:26.948Z,6.75
2023-03-29T10:37:02.025Z,7.78
2023-03-29T10:39:35.412Z,6.25
2023-03-29T10:42:04.209Z,7.00
2023-03-29T10:44:37.538Z,7.35
2023-03-29T10:47:23.315Z,6.40
2023-03-29T10:49:58.694Z,7.28
2023-03-29T10:52:25.979Z,6.97
2023-03-29T10:54:56.286Z,7.90
2023-03-29T10:57:57.330Z,6.47
2023-03-29T11:00:51.814Z,7.57
2023-03-29T11:03:41.188Z,6.18
2023-03-29T11:06:42.743Z,7.53
2023-03-29T11:09:45.728Z,7.63
2023-03-29T11:12:24.257Z,7.03
2023-03-29T11:15:20.263Z,6.97
2023-03-29T11:18:28.557Z,6.22
2023-03-29T11:21:23.611Z,6.97
2023-03-29T11:23:59.203Z,6.57
2023-03-29T11:26:57.338Z,6.97
2023-03-29T11:29:48.884Z,11.07
2023-03-29T11:32:53.144Z,7.68
2023-03-29T11:36:25.602Z,7.63
2023-03-29T11:39:11.836Z,8.30
2023-03-29T11:42:09.704Z,7.40
2023-03-29T11:44:40.798Z,7.25
2023-03-29T11:47:23.068Z,7.55
2023-03-29T11:50:15.623Z,8.00
2023-03-29T11:53:29.200Z,7.38
2023-03-29T11:56:24.519Z,7.45
2023-03-29T11:59:01.695Z,7.50
2023-03-29T12:01:56.414Z,7.18
2023-03-29T12:04:36.547Z,6.50
2023-03-29T12:07:50.919Z,8.02
2023-03-29T12:10:26.707Z,7.78
2023-03-29T12:13:06.088Z,8.63
2023-03-29T12:15:45.501Z,8.65
2023-03-29T12:18:49.516Z,8.88
2023-03-29T12:21:21.622Z,8.50
2023-03-29T12:23:49.547Z,7.95
2023-03-29T12:26:32.823Z,8.98
2023-03-29T12:29:20.553Z,9.93
2023-03-29T12:31:57.335Z,8.82
2023-03-29T12:34:57.497Z,12.57
2023-03-29T12:37:27.361Z,9.98
2023-03-29T12:39:54.344Z,12.93
2023-03-29T12:42:23.948Z,10.50
2023-03-29T12:44:59.011Z,11.93
2023-03-29T12:47:40.548Z,10.63
2023-03-29T12:50:23.234Z,8.50
2023-03-29T12:52:50.323Z,8.80
2023-03-29T12:55:48.924Z,8.23
2023-03-29T12:58:39.209Z,8.23
2023-03-29T13:01:24.233Z,8.00
2023-03-29T13:04:01.240Z,7.53
2023-03-29T13:07:02.723Z,7.97
2023-03-29T13:09:57.567Z,7.32
2023-03-29T13:12:35.249Z,7.03
2023-03-29T13:15:25.140Z,6.72
2023-03-29T13:18:12.178Z,6.32
2023-03-29T13:21:16.201Z,6.03
2023-03-29T13:24:03.270Z,6.13
2023-03-29T13:27:13.888Z,6.38
2023-03-29T13:30:12.915Z,5.70
2023-03-29T13:33:05.808Z,5.95
2023-03-29T13:35:59.920Z,6.05
2023-03-29T13:38:31.794Z,6.03
2023-03-29T13:41:07.755Z,6.75
2023-03-29T13:43:55.228Z,6.63
2023-03-29T13:46:43.200Z,6.72
2023-03-29T13:49:27.741Z,6.45
2023-03-29T13:51:54.471Z,6.43
2023-03-29T13:54:36.569Z,6.80
2023-03-29T13:57:30.017Z,7.13
2023-03-29T14:00:18.102Z,6.32
2023-03-29T14:02:54.927Z,6.30
2023-03-29T14:05:37.305Z,7.55
2023-03-29T14:08:30.933Z,8.05
2023-03-29T14:11:04.483Z,7.57
2023-03-29T14:13:31.456Z,7.22
2023-03-29T14:16:10.603Z,6.97
2023-03-29T14:18:41.172Z,7.90
2023-03-29T14:21:13.001Z,8.27
2023-03-29T14:23:53.548Z,7.32
2023-03-29T14:26:24.289Z,7.88
2023-03-29T14:28:58.384Z,9.00
2023-03-29T14:31:32.717Z,8.90
2023-03-29T14:34:05.568Z,9.75
2023-03-29T14:36:33.988Z,8.98
2023-03-29T14:39:23.312Z,9.80
2023-03-29T14:41:53.965Z,9.40
2023-03-29T14:44:24.805Z,9.10
2023-03-29T14:46:52.269Z,9.40
2023-03-29T14:49:23.475Z,8.77
2023-03-29T14:51:52.876Z,8.68
2023-03-29T14:54:32.135Z,9.45
2023-03-29T14:56:59.963Z,7.60
2023-03-29T14:59:40.886Z,7.57
2023-03-29T15:02:31.014Z,8.63
2023-03-29T15:05:05.137Z,7.80
2023-03-29T15:07:36.446Z,7.38
2023-03-29T15:10:06.482Z,7.60
2023-03-29T15:12:35.992Z,7.45
2023-03-29T15:15:04.196Z,7.07
2023-03-29T15:17:50.997Z,6.45
2023-03-29T15:20:28.445Z,6.07
2023-03-29T15:23:08.393Z,6.28
2023-03-29T15:25:48.439Z,5.10
2023-03-29T15:28:27.582Z,5.60
2023-03-29T15:31:08.131Z,5.30
2023-03-29T15:33:38.831Z,5.20
2023-03-29T15:36:08.500Z,5.28
2023-03-29T15:38:44.199Z,4.20
2023-03-29T15:41:14.220Z,4.38
2023-03-29T15:43:41.949Z,4.13
2023-03-29T15:46:13.894Z,3.90
2023-03-29T15:48:41.570Z,4.40
2023-03-29T15:51:12.442Z,3.95
2023-03-29T15:53:39.660Z,4.72
2023-03-29T15:56:11.550Z,4.13
2023-03-29T15:58:39.066Z,4.75
2023-03-29T16:01:36.641Z,4.35
2023-03-29T16:04:23.818Z,4.70
2023-03-29T16:06:54.979Z,4.93
2023-03-29T16:09:25.084Z,3.95
2023-03-29T16:11:51.871Z,4.47
2023-03-29T16:14:27.036Z,3.65
2023-03-29T16:16:59.351Z,4.07
2023-03-29T16:19:28.770Z,3.47
2023-03-29T16:21:55.924Z,3.50
2023-03-29T16:24:26.697Z,3.28
2023-03-29T16:26:56.452Z,2.58
2023-03-29T16:29:25.293Z,2.70
2023-03-29T16:31:53.080Z,2.85
2023-03-29T16:34:22.620Z,3.10
2023-03-29T16:36:50.670Z,3.00
2023-03-29T16:39:18.115Z,2.75
2023-03-29T16:41:48.201Z,2.30
2023-03-29T16:44:23.757Z,2.33
2023-03-29T16:46:54.475Z,2.35
2023-03-29T16:49:21.524Z,2.45
2023-03-29T16:51:48.431Z,2.58
2023-03-29T16:54:17.654Z,2.20
2023-03-29T16:56:44.800Z,2.38
2023-03-29T16:59:12.204Z,2.38
2023-03-29T17:01:40.627Z,2.47
2023-03-29T17:04:08.172Z,2.03
2023-03-29T17:06:38.182Z,2.30
2023-03-29T17:09:06.080Z,2.47
2023-03-29T17:11:33.573Z,2.15
2023-03-29T17:14:03.057Z,2.13
2023-03-29T17:16:29.821Z,2.33
2023-03-29T17:19:00.369Z,1.92
2023-03-29T17:21:28.800Z,2.40
2023-03-29T17:23:55.570Z,2.53
2023-03-29T17:26:22.410Z,2.08
2023-03-29T17:28:49.387Z,2.00
2023-03-29T17:31:16.944Z,1.90
2023-03-29T17:33:43.755Z,3.08
2023-03-29T17:36:11.866Z,2.10
2023-03-29T17:38:38.670Z,2.13
2023-03-29T17:41:07.904Z,1.98
2023-03-29T17:43:34.704Z,2.08
2023-03-29T17:46:01.665Z,1.77
2023-03-29T17:48:28.749Z,1.90
2023-03-29T17:50:56.958Z,1.63
2023-03-29T17:53:25.876Z,1.95
2023-03-29T17:55:52.882Z,1.88
2023-03-29T17:58:19.730Z,1.95
2023-03-29T18:00:46.576Z,2.17
2023-03-29T18:03:13.576Z,1.90
2023-03-29T18:05:40.684Z,2.40
2023-03-29T18:08:08.698Z,2.20
2023-03-29T18:10:36.811Z,2.20
2023-03-29T18:13:03.761Z,2.20
2023-03-29T18:15:30.493Z,2.85
2023-03-29T18:17:57.736Z,2.20
2023-03-29T18:20:24.494Z,2.10
2023-03-29T18:22:51.321Z,2.17
2023-03-29T18:25:18.289Z,2.20
2023-03-29T18:27:45.277Z,2.92
2023-03-29T18:30:16.898Z,2.65
2023-03-29T18:32:43.864Z,2.67
2023-03-29T18:35:12.150Z,2.63
2023-03-29T18:37:38.975Z,2.97
2023-03-29T18:40:08.588Z,2.78
2023-03-29T18:42:35.615Z,2.25
2023-03-29T18:45:03.232Z,2.70
2023-03-29T18:47:30.246Z,2.65
2023-03-29T18:49:57.693Z,2.70
2023-03-29T18:52:24.504Z,2.65
2023-03-29T18:54:51.419Z,3.28
2023-03-29T18:57:18.563Z,2.45
2023-03-29T18:59:47.372Z,2.90
2023-03-29T19:02:14.140Z,2.28
2023-03-29T19:04:41.048Z,2.33
2023-03-29T19:07:08.824Z,2.72
2023-03-29T19:09:36.017Z,2.60
2023-03-29T19:12:03.309Z,2.95
2023-03-29T19:14:33.112Z,3.20
2023-03-29T19:16:59.835Z,3.10
2023-03-29T19:19:27.157Z,2.78
2023-03-29T19:21:54.841Z,2.92
2023-03-29T19:24:21.952Z,2.47
2023-03-29T19:26:49.993Z,2.92
2023-03-29T19:29:18.862Z,2.80
2023-03-29T19:31:45.651Z,2.85
2023-03-29T19:34:12.482Z,2.70
2023-03-29T19:36:39.768Z,3.05
2023-03-29T19:39:07.159Z,3.92
2023-03-29T19:41:33.883Z,3.92
2023-03-29T19:44:00.683Z,3.00
2023-03-29T19:46:28.854Z,3.45
2023-03-29T19:48:56.234Z,3.75
2023-03-29T19:51:23.622Z,3.20
2023-03-29T19:53:52.671Z,3.53
2023-03-29T19:56:20.116Z,2.95
2023-03-29T19:58:48.095Z,3.33
2023-03-29T20:01:15.626Z,3.08
2023-03-29T20:03:43.831Z,3.33
2023-03-29T20:06:10.907Z,2.95
2023-03-29T20:08:38.683Z,3.25
2023-03-29T20:11:10.305Z,3.13
2023-03-29T20:13:45.290Z,3.35
2023-03-29T20:16:16.143Z,3.33
2023-03-29T20:18:47.235Z,3.28
2023-03-29T20:21:16.562Z,3.22
2023-03-29T20:23:44.083Z,3.30
2023-03-29T20:26:11.112Z,3.28
2023-03-29T20:28:37.910Z,2.90
2023-03-29T20:31:10.390Z,3.17
2023-03-29T20:33:37.873Z,3.08
2023-03-29T20:36:06.610Z,3.60
2023-03-29T20:38:34.906Z,4.07
2023-03-29T20:41:04.025Z,3.38
2023-03-29T20:43:37.363Z,3.38
2023-03-29T20:46:05.724Z,2.90
2023-03-29T20:48:32.465Z,3.35
2023-03-29T20:51:02.710Z,3.22
2023-03-29T20:53:34.044Z,2.72
2023-03-29T20:56:00.794Z,3.00
2023-03-29T20:58:28.988Z,2.80
2023-03-29T21:00:58.661Z,2.75
2023-03-29T21:03:25.622Z,3.00
2023-03-29T21:05:55.507Z,3.50
2023-03-29T21:08:22.291Z,3.13
2023-03-29T21:10:49.064Z,3.10
2023-03-29T21:13:15.824Z,2.63
2023-03-29T21:15:43.642Z,3.03
2023-03-29T21:18:11.071Z,2.92
2023-03-29T21:20:37.822Z,2.80
2023-03-29T21:23:04.817Z,3.17
2023-03-29T21:25:31.529Z,2.75
2023-03-29T21:27:58.217Z,3.20
2023-03-29T21:30:24.961Z,3.67
2023-03-29T21:32:51.741Z,2.90
2023-03-29T21:35:18.703Z,2.78
2023-03-29T21:37:45.594Z,3.08
2023-03-29T21:40:13.172Z,2.75
2023-03-29T21:42:39.967Z,2.88
2023-03-29T21:45:07.774Z,2.90
2023-03-29T21:47:34.499Z,3.40
2023-03-29T21:50:01.212Z,3.00
2023-03-29T21:52:27.954Z,3.35
2023-03-29T21:54:54.743Z,3.20
2023-03-29T21:57:21.512Z,3.15
2023-03-29T21:59:48.319Z,3.13
2023-03-29T22:02:16.900Z,3.17
2023-03-29T22:04:43.740Z,3.38
2023-03-29T22:07:10.648Z,3.03
2023-03-29T22:09:37.583Z,3.22
2023-03-29T22:12:04.643Z,3.13
2023-03-29T22:14:35.099Z,2.60
2023-03-29T22:17:07.792Z,3.42
2023-03-29T22:19:39.526Z,3.20
2023-03-29T22:22:13.038Z,3.05
2023-03-29T22:24:41.313Z,3.40
2023-03-29T22:27:08.377Z,3.13
2023-03-29T22:29:35.339Z,3.15
2023-03-29T22:32:02.193Z,3.50
2023-03-29T22:34:29.942Z,2.88
2023-03-29T22:36:56.826Z,3.28
2023-03-29T22:39:23.574Z,3.10
2023-03-29T22:41:51.375Z,2.88
2023-03-29T22:44:18.106Z,3.33
2023-03-29T22:46:44.951Z,2.95
2023-03-29T22:49:13.144Z,3.00
2023-03-29T22:51:39.929Z,3.00
2023-03-29T22:54:06.793Z,3.10
2023-03-29T22:56:33.629Z,3.22
2023-03-29T22:59:01.681Z,2.75
2023-03-29T23:01:28.441Z,2.80
2023-03-29T23:03:55.269Z,3.03
2023-03-29T23:06:21.989Z,2.83
2023-03-29T23:08:48.764Z,3.65
2023-03-29T23:11:15.555Z,2.65
2023-03-29T23:13:42.266Z,2.90
2023-03-29T23:16:09.552Z,2.78
2023-03-29T23:18:37.427Z,2.70
2023-03-29T23:21:06.340Z,2.65
2023-03-29T23:23:33.602Z,2.83
2023-03-29T23:26:01.987Z,2.42
2023-03-29T23:28:30.533Z,2.90
2023-03-29T23:31:12.492Z,3.45
2023-03-29T23:33:42.791Z,2.78
2023-03-29T23:36:18.037Z,2.45
2023-03-29T23:38:46.706Z,3.20
2023-03-29T23:41:13.801Z,2.47
2023-03-29T23:43:43.900Z,2.20
2023-03-29T23:46:16.812Z,2.05
2023-03-29T23:48:49.219Z,2.40
2023-03-29T23:51:19.052Z,2.50
2023-03-29T23:53:46.501Z,2.13
2023-03-29T23:56:13.213Z,2.30
2023-03-29T23:58:40.042Z,2.28
